Terminal Aerodrome Forecast
Issued by NWS North Platte, NE

Home | Current Version | Previous Version | Text Only | Print | Product List | Glossary On
Versions: 1 2 3 4 5 6 7 8 9 10 11 12 13 14 15 16 17 18
000
FTUS43 KLBF 291722
TAFLBF
TAF
KLBF 291722Z 2918/3018 07009KT P6SM VCSH BKN019 OVC025
     FM292100 05015G23KT P6SM -RA OVC010
     FM300000 03011KT 3SM -RA OVC003
     FM300100 03011KT 3SM +RA OVC003
     FM300600 04014KT 2SM -RA OVC003
     FM300900 01013KT 3SM -RA BR OVC003
     FM301200 01014KT 1SM -RASN BR VV003=

USA.gov is the U.S. government's official web portal to all federal, state and local government web resources and services.